createdAt,value
2022-07-29T00:05:11.289Z,100
2022-07-29T00:10:23.448Z,100
2022-07-29T00:15:35.929Z,100
2022-07-29T00:20:48.640Z,100
2022-07-29T00:26:01.738Z,100
2022-07-29T00:31:14.364Z,100
2022-07-29T00:36:26.790Z,100
2022-07-29T00:41:38.990Z,100
2022-07-29T00:46:56.487Z,100
2022-07-29T00:52:12.335Z,100
2022-07-29T00:57:26.491Z,100
2022-07-29T01:02:39.153Z,100
2022-07-29T01:07:51.683Z,100
2022-07-29T01:13:09.194Z,100
2022-07-29T01:18:25.035Z,100
2022-07-29T01:23:37.614Z,100
2022-07-29T01:28:52.147Z,100
2022-07-29T01:34:04.576Z,100
2022-07-29T01:39:16.925Z,100
2022-07-29T01:44:29.245Z,100
2022-07-29T01:49:41.466Z,100
2022-07-29T01:54:53.812Z,100
2022-07-29T02:00:05.940Z,100
2022-07-29T02:05:18.643Z,100
2022-07-29T02:10:30.544Z,100
2022-07-29T02:15:42.845Z,100
2022-07-29T02:20:54.910Z,100
2022-07-29T02:26:07.729Z,100
2022-07-29T02:31:20.317Z,100
2022-07-29T02:36:32.590Z,100
2022-07-29T02:41:44.970Z,100
2022-07-29T02:46:58.070Z,100
2022-07-29T02:52:11.123Z,100
2022-07-29T02:57:23.212Z,100
2022-07-29T03:02:35.371Z,100
2022-07-29T03:07:49.152Z,100
2022-07-29T03:13:00.911Z,100
2022-07-29T03:18:13.100Z,100
2022-07-29T03:23:25.749Z,100
2022-07-29T03:33:49.369Z,100
2022-07-29T03:39:01.450Z,100
2022-07-29T03:44:15.333Z,100
2022-07-29T03:49:27.895Z,100
2022-07-29T03:54:40.149Z,100
2022-07-29T03:59:52.500Z,100
2022-07-29T04:05:04.702Z,100
2022-07-29T04:10:17.071Z,100
2022-07-29T04:15:39.429Z,100
2022-07-29T04:20:51.591Z,100
2022-07-29T04:26:03.760Z,100
2022-07-29T04:31:18.590Z,100
2022-07-29T04:36:38.774Z,100
2022-07-29T04:41:50.941Z,100
2022-07-29T04:47:04.009Z,100
2022-07-29T04:52:16.459Z,100
2022-07-29T04:57:28.579Z,100
2022-07-29T05:02:41.175Z,100
2022-07-29T05:07:53.490Z,100
2022-07-29T05:13:05.630Z,100
2022-07-29T05:18:18.000Z,100
2022-07-29T05:23:30.419Z,100
2022-07-29T05:28:42.709Z,100
2022-07-29T05:33:55.082Z,100
2022-07-29T05:39:07.370Z,100
2022-07-29T05:44:25.572Z,100
2022-07-29T05:49:40.821Z,100
2022-07-29T05:54:53.610Z,100
2022-07-29T06:00:06.911Z,100
2022-07-29T06:05:19.483Z,100
2022-07-29T06:10:31.660Z,100
2022-07-29T06:15:44.427Z,100
2022-07-29T06:20:56.856Z,100
2022-07-29T06:26:09.275Z,100
2022-07-29T06:31:21.952Z,100
2022-07-29T06:36:37.982Z,100
2022-07-29T06:41:54.505Z,100
2022-07-29T06:47:07.558Z,100
2022-07-29T06:52:19.755Z,100
2022-07-29T06:57:32.225Z,100
2022-07-29T07:02:44.936Z,100
2022-07-29T07:07:58.725Z,100
2022-07-29T07:13:11.546Z,100
2022-07-29T07:18:23.925Z,100
2022-07-29T07:23:36.304Z,100
2022-07-29T07:28:48.964Z,100
2022-07-29T07:34:01.684Z,100
2022-07-29T07:39:14.364Z,100
2022-07-29T07:44:27.225Z,100
2022-07-29T07:49:45.655Z,100
2022-07-29T07:55:01.475Z,100
2022-07-29T08:00:13.626Z,100
2022-07-29T08:05:26.060Z,100
2022-07-29T08:10:38.405Z,100
2022-07-29T08:15:50.868Z,100
2022-07-29T08:21:03.384Z,100
2022-07-29T08:26:15.783Z,100
2022-07-29T08:36:41.174Z,100
2022-07-29T08:41:58.623Z,0
2022-07-29T08:47:14.835Z,8
2022-07-29T08:52:27.488Z,88
2022-07-29T08:57:57.865Z,88
2022-07-29T09:03:08.908Z,89
2022-07-29T09:08:21.414Z,90
2022-07-29T09:13:33.788Z,89
2022-07-29T09:18:46.314Z,91
2022-07-29T09:23:58.940Z,88
2022-07-29T09:29:11.449Z,85
2022-07-29T09:39:57.461Z,77
2022-07-29T09:45:10.327Z,76
2022-07-29T09:50:22.800Z,72
2022-07-29T09:55:36.429Z,75
2022-07-29T10:00:48.837Z,74
2022-07-29T10:06:01.539Z,74
2022-07-29T10:11:13.837Z,74
2022-07-29T10:16:26.645Z,77
2022-07-29T10:21:39.948Z,77
2022-07-29T10:26:52.668Z,76
2022-07-29T10:32:06.221Z,78
2022-07-29T10:37:21.070Z,77
2022-07-29T10:42:36.120Z,74
2022-07-29T10:47:48.609Z,75
2022-07-29T10:53:09.313Z,75
2022-07-29T10:58:24.601Z,75
2022-07-29T11:03:50.909Z,76
2022-07-29T11:09:11.026Z,74
2022-07-29T11:19:52.453Z,73
2022-07-29T11:25:08.655Z,73
2022-07-29T11:30:26.713Z,66
2022-07-29T11:35:40.950Z,61
2022-07-29T11:51:18.448Z,62
2022-07-29T11:56:42.913Z,61
2022-07-29T12:02:41.384Z,60
2022-07-29T12:07:50.411Z,59
2022-07-29T12:13:04.252Z,60
2022-07-29T12:18:19.559Z,60
2022-07-29T12:33:59.550Z,59
2022-07-29T12:39:11.832Z,59
2022-07-29T12:44:24.990Z,58
2022-07-29T12:59:59.690Z,59
2022-07-29T13:05:12.392Z,58
2022-07-29T13:10:26.164Z,58
2022-07-29T13:15:38.435Z,59
2022-07-29T13:31:13.103Z,59
2022-07-29T13:41:38.358Z,60
2022-07-29T13:52:02.481Z,62
2022-07-29T14:02:27.087Z,59
2022-07-29T14:12:50.218Z,62
2022-07-29T14:18:03.027Z,60
2022-07-29T14:23:20.523Z,61
2022-07-29T14:28:42.538Z,61
2022-07-29T14:39:08.098Z,59
2022-07-29T14:44:20.548Z,59
2022-07-29T14:59:55.944Z,60
2022-07-29T15:05:08.527Z,59
2022-07-29T15:25:52.025Z,61
2022-07-29T15:36:53.958Z,65
2022-07-29T15:42:02.498Z,64
2022-07-29T15:47:17.027Z,66
2022-07-29T15:52:28.677Z,66
2022-07-29T15:57:41.038Z,67
2022-07-29T16:02:53.476Z,70
2022-07-29T16:13:21.879Z,73
2022-07-29T16:18:38.008Z,72
2022-07-29T16:23:50.629Z,70
2022-07-29T16:29:03.737Z,65
2022-07-29T16:49:48.149Z,68
2022-07-29T16:55:00.758Z,68
2022-07-29T17:05:24.197Z,74
2022-07-29T17:10:37.118Z,76
2022-07-29T17:15:49.766Z,77
2022-07-29T17:21:02.438Z,75
2022-07-29T17:31:25.903Z,76
2022-07-29T17:47:00.030Z,76
2022-07-29T17:52:12.548Z,82
2022-07-29T17:57:24.878Z,87
2022-07-29T18:02:38.078Z,92
2022-07-29T18:07:50.329Z,94
2022-07-29T18:13:02.628Z,93
2022-07-29T18:23:27.420Z,91
2022-07-29T18:28:41.395Z,90
2022-07-29T18:34:00.705Z,91
2022-07-29T18:39:22.573Z,89
2022-07-29T18:44:50.234Z,91
2022-07-29T18:49:59.833Z,92
2022-07-29T18:55:12.144Z,92
2022-07-29T19:00:24.726Z,92
2022-07-29T19:05:37.124Z,92
2022-07-29T19:10:49.604Z,88
2022-07-29T19:16:02.479Z,89
2022-07-29T19:21:18.195Z,89
2022-07-29T19:26:34.445Z,89
2022-07-29T19:31:47.390Z,88
2022-07-29T19:37:02.007Z,89
2022-07-29T19:42:14.435Z,90
2022-07-29T19:47:26.819Z,90
2022-07-29T19:52:39.213Z,90
2022-07-29T19:57:52.396Z,90
2022-07-29T20:03:04.849Z,90
2022-07-29T20:08:17.172Z,89
2022-07-29T20:13:29.595Z,88
2022-07-29T20:18:42.103Z,86
2022-07-29T20:23:54.813Z,85
2022-07-29T20:29:07.994Z,84
2022-07-29T20:34:20.113Z,81
2022-07-29T20:39:32.863Z,78
2022-07-29T20:44:45.595Z,68
2022-07-29T20:55:08.165Z,56
2022-07-29T21:00:20.435Z,58
2022-07-29T21:05:32.929Z,56
2022-07-29T21:10:45.423Z,55
2022-07-29T21:15:58.128Z,49
2022-07-29T21:26:22.753Z,42
2022-07-29T21:31:35.172Z,45
2022-07-29T21:37:00.955Z,47
2022-07-29T21:42:10.953Z,49
2022-07-29T21:47:23.533Z,50
2022-07-29T21:52:39.684Z,50
2022-07-29T21:57:58.902Z,50
2022-07-29T22:03:14.434Z,46
2022-07-29T22:08:27.182Z,40
2022-07-29T22:13:39.662Z,36
2022-07-29T22:56:08.373Z,0
2022-07-29T23:01:39.135Z,100
2022-07-29T23:06:47.894Z,100
2022-07-29T23:12:00.122Z,100
2022-07-29T23:17:12.869Z,100
2022-07-29T23:22:25.502Z,100
2022-07-29T23:27:37.950Z,100
2022-07-29T23:32:50.574Z,100
2022-07-29T23:38:03.100Z,100
2022-07-29T23:43:15.593Z,100
2022-07-29T23:48:28.049Z,100
2022-07-29T23:53:55.043Z,100
2022-07-29T23:59:06.911Z,100
